createdAt,value
2023-04-02T00:03:22.576Z,18.80
2023-04-02T00:08:31.475Z,18.80
2023-04-02T00:13:37.113Z,18.80
2023-04-02T00:18:44.543Z,18.80
2023-04-02T00:23:48.076Z,18.80
2023-04-02T00:28:52.246Z,18.90
2023-04-02T00:33:57.291Z,18.80
2023-04-02T00:39:01.903Z,18.80
2023-04-02T00:44:06.136Z,18.80
2023-04-02T00:49:18.406Z,18.80
2023-04-02T00:54:23.593Z,18.80
2023-04-02T00:59:29.667Z,18.80
2023-04-02T01:04:36.796Z,18.80
2023-04-02T01:09:52.768Z,18.80
2023-04-02T01:15:02.508Z,18.80
2023-04-02T01:20:26.114Z,18.80
2023-04-02T01:25:36.292Z,18.80
2023-04-02T01:30:41.759Z,18.80
2023-04-02T01:35:47.809Z,18.80
2023-04-02T01:40:56.161Z,18.80
2023-04-02T01:46:01.393Z,18.80
2023-04-02T01:51:09.392Z,18.70
2023-04-02T01:56:12.959Z,18.80
2023-04-02T02:01:19.244Z,18.80
2023-04-02T02:06:22.871Z,18.80
2023-04-02T02:11:28.820Z,18.70
2023-04-02T02:16:41.810Z,18.80
2023-04-02T02:21:47.449Z,18.70
2023-04-02T02:26:54.953Z,18.80
2023-04-02T02:32:01.113Z,18.70
2023-04-02T02:37:08.067Z,18.80
2023-04-02T02:42:14.819Z,18.80
2023-04-02T02:47:21.550Z,18.80
2023-04-02T02:52:27.891Z,18.70
2023-04-02T02:57:33.940Z,18.80
2023-04-02T03:02:40.707Z,18.80
2023-04-02T03:07:44.269Z,18.80
2023-04-02T03:12:53.239Z,18.80
2023-04-02T03:18:00.718Z,18.70
2023-04-02T03:23:09.283Z,18.80
2023-04-02T03:28:16.202Z,18.80
2023-04-02T03:33:23.170Z,18.80
2023-04-02T03:38:29.133Z,18.80
2023-04-02T03:43:36.386Z,18.80
2023-04-02T03:48:43.590Z,18.80
2023-04-02T03:53:48.117Z,18.80
2023-04-02T03:58:56.829Z,18.70
2023-04-02T04:04:07.626Z,18.70
2023-04-02T04:09:12.882Z,18.70
2023-04-02T04:14:19.521Z,18.70
2023-04-02T04:19:30.266Z,18.70
2023-04-02T04:24:39.471Z,18.70
2023-04-02T04:29:48.508Z,18.70
2023-04-02T04:34:56.885Z,18.70
2023-04-02T04:40:04.376Z,18.70
2023-04-02T04:45:14.425Z,18.70
2023-04-02T04:50:27.543Z,18.70
2023-04-02T04:55:37.846Z,18.70
2023-04-02T05:00:45.358Z,18.70
2023-04-02T05:05:50.823Z,18.60
2023-04-02T05:10:58.610Z,18.60
2023-04-02T05:16:08.789Z,18.60
2023-04-02T05:21:18.673Z,18.70
2023-04-02T05:26:25.405Z,18.60
2023-04-02T05:31:33.141Z,18.70
2023-04-02T05:36:38.395Z,18.50
2023-04-02T05:41:43.569Z,18.50
2023-04-02T05:46:51.381Z,18.40
2023-04-02T05:51:59.380Z,18.40
2023-04-02T05:57:05.204Z,18.30
2023-04-02T06:02:14.278Z,18.30
2023-04-02T06:07:21.497Z,18.40
2023-04-02T06:12:29.362Z,18.40
2023-04-02T06:17:36.089Z,18.40
2023-04-02T06:22:42.013Z,18.40
2023-04-02T06:27:47.818Z,18.20
2023-04-02T06:32:51.347Z,18.20
2023-04-02T06:37:57.653Z,18.30
2023-04-02T06:43:02.265Z,18.20
2023-04-02T06:48:06.126Z,18.30
2023-04-02T06:53:21.762Z,18.30
2023-04-02T06:58:25.195Z,18.30
2023-04-02T07:03:30.084Z,18.40
2023-04-02T07:08:34.943Z,18.20
2023-04-02T07:13:38.373Z,18.10
2023-04-02T07:18:41.868Z,18.10
2023-04-02T07:23:46.749Z,18.20
2023-04-02T07:28:50.528Z,18.10
2023-04-02T07:33:55.746Z,18.10
2023-04-02T07:39:01.108Z,18.10
2023-04-02T07:44:05.775Z,18.20
2023-04-02T07:49:09.264Z,18.40
2023-04-02T07:54:14.126Z,18.20
2023-04-02T07:59:17.588Z,18.20
2023-04-02T08:04:23.025Z,18.10
2023-04-02T08:09:28.118Z,18.20
2023-04-02T08:14:31.735Z,18.10
2023-04-02T08:19:44.420Z,18.00
2023-04-02T08:24:57.575Z,18.00
2023-04-02T08:30:01.048Z,18.10
2023-04-02T08:35:04.835Z,18.10
2023-04-02T08:40:20.309Z,18.00
2023-04-02T08:45:30.161Z,18.10
2023-04-02T08:50:35.777Z,18.00
2023-04-02T08:55:48.075Z,18.10
2023-04-02T09:00:54.665Z,18.00
2023-04-02T09:05:59.193Z,18.20
2023-04-02T09:11:08.637Z,18.10
2023-04-02T09:16:13.585Z,18.10
2023-04-02T09:21:32.081Z,18.00
2023-04-02T09:26:37.105Z,18.10
2023-04-02T09:31:42.763Z,18.10
2023-04-02T09:36:46.379Z,18.10
2023-04-02T09:42:04.579Z,18.10
2023-04-02T09:47:25.376Z,18.00
2023-04-02T09:52:30.030Z,18.10
2023-04-02T09:57:34.990Z,18.10
2023-04-02T10:02:38.613Z,18.10
2023-04-02T10:07:44.230Z,18.20
2023-04-02T10:12:54.212Z,18.10
2023-04-02T10:18:03.929Z,18.10
2023-04-02T10:23:07.419Z,18.20
2023-04-02T10:28:17.534Z,18.10
2023-04-02T10:33:25.278Z,18.10
2023-04-02T10:38:39.832Z,18.10
2023-04-02T10:44:20.189Z,18.10
2023-04-02T10:49:29.528Z,18.10
2023-04-02T10:54:43.196Z,18.20
2023-04-02T10:59:52.696Z,18.10
2023-04-02T11:04:57.316Z,18.10
2023-04-02T11:10:01.887Z,18.10
2023-04-02T11:15:16.366Z,18.10
2023-04-02T11:21:05.605Z,18.10
2023-04-02T11:26:31.302Z,18.10
2023-04-02T11:31:37.547Z,18.20
2023-04-02T11:37:03.572Z,18.10
2023-04-02T11:42:24.993Z,18.20
2023-04-02T11:47:31.311Z,18.20
2023-04-02T11:52:38.193Z,18.20
2023-04-02T11:57:51.211Z,18.10
2023-04-02T12:03:07.121Z,18.20
2023-04-02T12:08:19.351Z,18.20
2023-04-02T12:13:43.590Z,18.20
2023-04-02T12:18:51.463Z,18.20
2023-04-02T12:23:56.981Z,18.20
2023-04-02T12:29:22.714Z,18.20
2023-04-02T12:34:29.412Z,18.20
2023-04-02T12:39:34.236Z,18.20
2023-04-02T12:44:37.681Z,18.10
2023-04-02T12:49:43.654Z,18.20
2023-04-02T12:54:48.901Z,18.20
2023-04-02T12:59:52.834Z,18.10
2023-04-02T13:05:01.059Z,18.20
2023-04-02T13:10:05.994Z,18.10
2023-04-02T13:15:19.270Z,18.20
2023-04-02T13:20:32.624Z,18.20
2023-04-02T13:25:37.760Z,18.20
2023-04-02T13:30:41.384Z,18.10
2023-04-02T13:35:46.510Z,18.20
2023-04-02T13:40:50.102Z,18.10
2023-04-02T13:45:54.781Z,18.20
2023-04-02T13:50:59.726Z,18.20
2023-04-02T13:56:03.260Z,18.10
2023-04-02T14:01:07.115Z,18.10
2023-04-02T14:06:16.464Z,18.10
2023-04-02T14:11:30.563Z,18.10
2023-04-02T14:16:52.270Z,18.10
2023-04-02T14:22:05.077Z,18.10
2023-04-02T14:27:18.703Z,18.10
2023-04-02T14:32:25.690Z,18.20
2023-04-02T14:37:35.394Z,18.10
2023-04-02T14:42:42.764Z,18.10
2023-04-02T14:47:50.092Z,18.10
2023-04-02T14:52:57.981Z,18.20
2023-04-02T14:58:01.757Z,18.20
2023-04-02T15:03:08.221Z,18.20
2023-04-02T15:08:21.048Z,18.30
2023-04-02T15:13:27.363Z,18.20
2023-04-02T15:18:30.908Z,18.20
2023-04-02T15:23:44.102Z,18.20
2023-04-02T15:28:51.854Z,18.10
2023-04-02T15:33:58.835Z,18.10
2023-04-02T15:39:13.023Z,18.20
2023-04-02T15:44:17.832Z,18.20
2023-04-02T15:49:34.536Z,18.20
2023-04-02T15:55:03.880Z,18.20
2023-04-02T16:00:28.358Z,18.20
2023-04-02T16:05:40.162Z,18.30
2023-04-02T16:10:45.952Z,18.20
2023-04-02T16:15:53.800Z,18.30
2023-04-02T16:21:02.146Z,18.30
2023-04-02T16:26:19.292Z,18.30
2023-04-02T16:31:27.354Z,18.30
2023-04-02T16:36:48.246Z,18.40
2023-04-02T16:42:00.974Z,18.30
2023-04-02T16:47:15.962Z,18.40
2023-04-02T16:52:28.464Z,18.20
2023-04-02T16:57:37.818Z,18.30
2023-04-02T17:02:50.476Z,18.40
2023-04-02T17:08:01.790Z,18.40
2023-04-02T17:13:16.991Z,18.30
2023-04-02T17:18:21.672Z,18.30
2023-04-02T17:23:25.984Z,18.40
2023-04-02T17:28:37.013Z,18.40
2023-04-02T17:33:40.453Z,18.40
2023-04-02T17:38:52.351Z,18.30
2023-04-02T17:44:01.323Z,18.40
2023-04-02T17:49:12.699Z,18.40
2023-04-02T17:54:27.996Z,18.50
2023-04-02T17:59:44.938Z,18.30
2023-04-02T18:04:53.595Z,18.50
2023-04-02T18:10:03.913Z,18.40
2023-04-02T18:15:28.753Z,18.40
2023-04-02T18:20:34.652Z,18.50
2023-04-02T18:25:46.076Z,18.60
2023-04-02T18:30:56.423Z,18.50
2023-04-02T18:36:01.481Z,18.50
2023-04-02T18:41:15.877Z,18.60
2023-04-02T18:46:29.579Z,18.60
2023-04-02T18:51:36.915Z,18.50
2023-04-02T18:56:41.396Z,18.50
2023-04-02T19:01:50.213Z,18.40
2023-04-02T19:06:57.803Z,18.40
2023-04-02T19:12:01.537Z,18.30
2023-04-02T19:17:11.397Z,18.50
2023-04-02T19:22:18.225Z,18.50
2023-04-02T19:27:25.854Z,18.30
2023-04-02T19:32:35.023Z,18.50
2023-04-02T19:37:41.400Z,18.40
2023-04-02T19:42:47.142Z,18.40
2023-04-02T19:47:52.119Z,18.60
2023-04-02T19:52:55.591Z,18.50
2023-04-02T19:58:12.662Z,18.50
2023-04-02T20:03:24.103Z,18.50
2023-04-02T20:08:27.965Z,18.40
2023-04-02T20:13:31.475Z,18.50
2023-04-02T20:18:37.307Z,18.50
2023-04-02T20:23:41.011Z,18.50
2023-04-02T20:28:44.431Z,18.40
2023-04-02T20:33:49.370Z,18.50
2023-04-02T20:38:53.301Z,18.60
2023-04-02T20:43:56.834Z,18.60
2023-04-02T20:49:02.296Z,18.50
2023-04-02T20:54:06.092Z,18.50
2023-04-02T20:59:09.564Z,18.60
2023-04-02T21:04:14.856Z,18.40
2023-04-02T21:09:21.484Z,18.60
2023-04-02T21:14:25.338Z,18.60
2023-04-02T21:19:30.415Z,18.60
2023-04-02T21:24:33.968Z,18.50
2023-04-02T21:29:37.462Z,18.50
2023-04-02T21:34:42.347Z,18.50
2023-04-02T21:39:45.800Z,18.60
2023-04-02T21:44:49.252Z,18.50
2023-04-02T21:49:54.188Z,18.50
2023-04-02T21:54:57.613Z,18.50
2023-04-02T22:00:01.091Z,18.50
2023-04-02T22:05:06.725Z,18.40
2023-04-02T22:10:10.582Z,18.60
2023-04-02T22:15:14.037Z,18.50
2023-04-02T22:20:18.927Z,18.40
2023-04-02T22:25:22.424Z,18.50
2023-04-02T22:30:30.139Z,18.50
2023-04-02T22:35:35.057Z,18.60
2023-04-02T22:40:38.646Z,18.60
2023-04-02T22:45:42.242Z,18.50
2023-04-02T22:50:50.895Z,18.40
2023-04-02T22:55:54.589Z,18.50
2023-04-02T23:00:58.086Z,18.50
2023-04-02T23:06:04.462Z,18.60
2023-04-02T23:11:10.390Z,18.50
2023-04-02T23:16:14.953Z,18.60
2023-04-02T23:21:21.754Z,18.50
2023-04-02T23:26:29.582Z,18.40
2023-04-02T23:31:33.635Z,18.60
2023-04-02T23:36:38.618Z,18.50
2023-04-02T23:41:44.270Z,18.50
2023-04-02T23:46:47.805Z,18.60
2023-04-02T23:51:53.231Z,18.60
2023-04-02T23:56:56.790Z,18.50
